Time;durP1;ratioP1;P1;durP2;ratioP2;P2;SDS_P1;SDS_P2;PMS_P1;PMS_P2;Temp;Humidity;BMP_temperature;BMP_pressure;BME280_temperature;BME280_humidity;BME280_pressure;Samples;Min_cycle;Max_cycle;Signal;HPM_P1;HPM_P2
2021/12/23 00:01:13;;;;;;;21.70;13.35;;;0.40;99.90;;;;;;4912261;29;20478;-79
2021/12/23 00:03:39;;;;;;;20.15;13.15;;;0.10;99.90;;;;;;4887261;29;20056;-78
2021/12/23 00:06:05;;;;;;;20.77;13.45;;;-0.90;99.90;;;;;;4896399;29;20059;-78
2021/12/23 00:08:31;;;;;;;22.52;13.07;;;-0.70;99.90;;;;;;4912717;29;20059;-79
2021/12/23 00:10:56;;;;;;;20.50;12.73;;;-0.90;99.90;;;;;;4893635;29;20044;-78
2021/12/23 00:13:23;;;;;;;20.88;12.27;;;0.10;99.90;;;;;;4913559;29;20135;-79
2021/12/23 00:23:43;;;;;;;24.08;13.35;;;-0.90;99.90;;;;;;4910463;29;20430;-79
2021/12/23 00:26:09;;;;;;;19.92;12.48;;;-0.90;99.90;;;;;;4893560;29;20064;-79
2021/12/23 00:28:34;;;;;;;23.48;13.05;;;-0.90;99.90;;;;;;4895368;29;20052;-78
2021/12/23 00:31:01;;;;;;;19.90;12.77;;;-0.90;99.90;;;;;;4911905;29;20052;-80
2021/12/23 00:33:28;;;;;;;24.02;12.38;;;-0.90;99.90;;;;;;4911184;29;20101;-79
2021/12/23 00:35:57;;;;;;;20.27;13.13;;;-0.80;99.90;;;;;;4926650;29;20479;-79
2021/12/23 00:38:29;;;;;;;23.02;12.70;;;-0.80;99.90;;;;;;4912122;29;20048;-78
2021/12/23 00:40:57;;;;;;;20.50;12.48;;;0.20;99.90;;;;;;4916345;29;20060;-79
2021/12/23 00:43:24;;;;;;;23.48;12.63;;;-0.80;99.90;;;;;;4913938;29;20139;-79
2021/12/23 00:45:50;;;;;;;20.58;12.30;;;-0.80;99.90;;;;;;4897592;29;20056;-79
2021/12/23 00:48:16;;;;;;;20.65;13.52;;;-0.70;99.90;;;;;;4914644;29;20394;-79
2021/12/23 00:50:42;;;;;;;26.70;13.60;;;-0.80;99.90;;;;;;4908052;29;20040;-79
2021/12/23 00:53:10;;;;;;;22.00;13.43;;;-0.80;99.90;;;;;;4914176;29;20055;-79
2021/12/23 00:55:37;;;;;;;20.10;12.35;;;0.70;99.90;;;;;;4930612;29;20052;-79
2021/12/23 00:58:03;;;;;;;17.95;12.02;;;-0.80;99.90;;;;;;4892615;29;20044;-80
2021/12/23 01:00:30;;;;;;;22.38;12.90;;;-0.80;99.90;;;;;;4898581;29;20152;-79
2021/12/23 01:02:58;;;;;;;19.70;12.52;;;-0.80;99.90;;;;;;4898396;29;20486;-78
2021/12/23 01:05:24;;;;;;;18.40;12.23;;;-0.70;99.90;;;;;;4913867;29;20043;-79
2021/12/23 01:07:50;;;;;;;23.27;13.38;;;1.00;99.90;;;;;;4912845;29;20059;-79
2021/12/23 01:10:17;;;;;;;18.02;12.30;;;0.80;99.90;;;;;;4874041;29;20048;-79
2021/12/23 01:12:52;;;;;;;21.92;12.55;;;-0.70;99.90;;;;;;4914420;29;20044;-79
2021/12/23 01:20:28;;;;;;;20.90;13.20;;;0.80;99.90;;;;;;4928954;29;20067;-79
2021/12/23 01:22:55;;;;;;;19.73;11.65;;;-0.20;99.90;;;;;;4890847;29;20103;-79
2021/12/23 01:25:22;;;;;;;18.33;11.50;;;1.10;99.90;;;;;;4912785;29;20730;-79
2021/12/23 01:27:49;;;;;;;21.52;12.43;;;-0.50;99.90;;;;;;4905656;29;20084;-79
2021/12/23 01:30:17;;;;;;;17.88;11.90;;;-0.70;99.90;;;;;;4897905;29;20119;-79
2021/12/23 01:32:44;;;;;;;22.27;12.75;;;0.90;99.90;;;;;;4913726;29;20059;-78
2021/12/23 01:35:10;;;;;;;19.80;12.65;;;0.40;99.90;;;;;;4913532;29;20417;-79
2021/12/23 01:37:36;;;;;;;20.25;12.23;;;-0.70;99.90;;;;;;4914570;29;20470;-79
2021/12/23 01:40:02;;;;;;;19.45;11.68;;;-0.70;99.90;;;;;;4897704;29;20052;-79
2021/12/23 01:42:28;;;;;;;18.70;11.88;;;-0.70;99.90;;;;;;4913298;29;20242;-78
2021/12/23 01:44:54;;;;;;;19.70;12.25;;;0.00;99.90;;;;;;4914019;29;20505;-78
2021/12/23 01:47:19;;;;;;;19.15;12.52;;;0.30;99.90;;;;;;4913966;29;20520;-78
2021/12/23 01:49:45;;;;;;;18.95;12.23;;;0.20;99.90;;;;;;4914149;29;20056;-79
2021/12/23 01:52:11;;;;;;;20.17;12.10;;;0.00;99.90;;;;;;4915147;29;20101;-79
2021/12/23 01:54:37;;;;;;;22.02;12.50;;;-0.70;99.90;;;;;;4900220;29;20172;-79
2021/12/23 01:57:03;;;;;;;17.67;11.93;;;0.00;99.90;;;;;;4899703;29;20064;-79
2021/12/23 01:59:32;;;;;;;18.40;12.00;;;-0.70;99.90;;;;;;4930034;29;20040;-79
2021/12/23 02:01:57;;;;;;;23.77;13.07;;;-0.70;99.90;;;;;;4897945;29;20086;-79
2021/12/23 02:04:23;;;;;;;20.70;13.02;;;-0.10;99.90;;;;;;4913146;29;20123;-79
2021/12/23 02:06:49;;;;;;;19.80;12.38;;;-0.70;99.90;;;;;;4897966;29;20052;-79
2021/12/23 02:09:15;;;;;;;17.45;12.18;;;0.40;99.90;;;;;;4897348;29;20099;-79
2021/12/23 02:11:41;;;;;;;19.90;12.13;;;1.00;99.90;;;;;;4914345;29;20498;-79
2021/12/23 02:14:07;;;;;;;19.95;12.88;;;-0.70;99.90;;;;;;4912361;29;20054;-79
2021/12/23 02:16:33;;;;;;;19.77;12.45;;;-0.40;99.90;;;;;;4897657;29;20043;-79
2021/12/23 02:19:02;;;;;;;21.83;12.15;;;-0.70;99.90;;;;;;4896572;29;20214;-79
2021/12/23 02:21:28;;;;;;;19.27;11.63;;;0.60;99.90;;;;;;4928229;29;20471;-80
2021/12/23 02:23:53;;;;;;;18.73;11.77;;;-0.70;99.90;;;;;;4895671;29;20064;-79
2021/12/23 02:26:20;;;;;;;20.10;12.18;;;0.60;99.90;;;;;;4908103;29;20570;-79
2021/12/23 02:28:46;;;;;;;17.27;11.23;;;-0.30;99.90;;;;;;4911057;29;20063;-79
2021/12/23 02:31:12;;;;;;;18.48;12.18;;;0.00;99.90;;;;;;4910881;29;20139;-81
2021/12/23 02:33:37;;;;;;;17.05;11.50;;;1.20;99.90;;;;;;4905136;29;20052;-80
2021/12/23 02:36:04;;;;;;;19.67;12.20;;;1.20;99.90;;;;;;4896093;29;20063;-79
2021/12/23 02:38:30;;;;;;;20.15;12.10;;;0.00;99.90;;;;;;4927175;29;20442;-80
2021/12/23 02:40:56;;;;;;;21.23;12.02;;;-0.70;99.90;;;;;;4896192;29;20047;-79
2021/12/23 02:43:25;;;;;;;21.10;13.43;;;-0.70;99.90;;;;;;4912904;29;20059;-79
2021/12/23 02:45:55;;;;;;;19.17;13.00;;;-0.60;99.90;;;;;;4911727;29;20039;-79
2021/12/23 02:48:24;;;;;;;23.73;13.43;;;0.30;99.90;;;;;;4910962;29;20123;-79
2021/12/23 02:50:52;;;;;;;19.95;12.48;;;0.70;99.90;;;;;;4913417;29;20468;-79
2021/12/23 02:53:18;;;;;;;20.13;12.80;;;0.40;99.90;;;;;;4904844;29;20048;-80
2021/12/23 02:55:45;;;;;;;21.55;14.13;;;0.40;99.90;;;;;;4912550;29;20479;-79
2021/12/23 02:58:11;;;;;;;20.23;12.68;;;0.60;99.90;;;;;;4913061;29;20076;-79
2021/12/23 03:00:39;;;;;;;20.70;12.45;;;-0.60;99.90;;;;;;4904863;29;20084;-78
2021/12/23 03:03:05;;;;;;;23.92;12.80;;;-0.60;99.90;;;;;;4912437;29;20054;-79
2021/12/23 03:05:31;;;;;;;18.30;12.02;;;0.70;99.90;;;;;;4897140;29;20067;-79
2021/12/23 03:07:59;;;;;;;19.27;12.15;;;0.80;99.90;;;;;;4913181;29;20051;-79
2021/12/23 03:10:24;;;;;;;20.92;12.75;;;-0.40;99.90;;;;;;4911557;29;20048;-79
2021/12/23 03:12:51;;;;;;;20.25;13.20;;;-0.60;99.90;;;;;;4913701;29;20048;-79
2021/12/23 03:15:17;;;;;;;20.70;13.13;;;0.10;99.90;;;;;;4912301;29;20084;-79
2021/12/23 03:17:43;;;;;;;20.58;13.02;;;-0.60;99.90;;;;;;4871258;29;20044;-79
2021/12/23 03:20:09;;;;;;;20.23;13.02;;;1.00;99.90;;;;;;4913512;29;20059;-79
2021/12/23 03:22:35;;;;;;;18.25;12.55;;;-0.50;99.90;;;;;;4908996;29;20149;-79
2021/12/23 03:25:01;;;;;;;18.90;13.05;;;-0.60;99.90;;;;;;4911687;29;20131;-79
2021/12/23 03:27:27;;;;;;;20.45;12.13;;;0.60;99.90;;;;;;4912508;29;20060;-79
2021/12/23 03:29:54;;;;;;;21.50;12.10;;;-0.10;99.90;;;;;;4891401;29;20383;-78
2021/12/23 03:32:20;;;;;;;20.17;13.38;;;-0.50;99.90;;;;;;4913012;29;20080;-79
2021/12/23 03:34:48;;;;;;;19.60;12.65;;;0.80;99.90;;;;;;4912154;29;20110;-78
2021/12/23 03:37:14;;;;;;;21.27;12.93;;;-0.50;99.90;;;;;;4929338;29;20375;-79
2021/12/23 03:39:40;;;;;;;20.30;12.05;;;0.10;99.90;;;;;;4912108;29;20044;-78
2021/12/23 03:42:06;;;;;;;21.48;12.75;;;0.40;99.90;;;;;;4889534;29;20120;-79
2021/12/23 03:44:32;;;;;;;21.85;13.23;;;-0.50;99.90;;;;;;4912486;29;20082;-79
2021/12/23 03:46:57;;;;;;;18.52;12.52;;;-0.50;99.90;;;;;;4898163;29;20080;-78
2021/12/23 03:49:23;;;;;;;22.05;13.27;;;1.10;99.90;;;;;;4912483;29;20079;-79
2021/12/23 03:51:49;;;;;;;20.48;13.02;;;0.50;99.90;;;;;;4913654;29;20062;-78
2021/12/23 03:54:14;;;;;;;18.42;12.88;;;-0.50;99.90;;;;;;4912771;29;20048;-79
2021/12/23 03:56:41;;;;;;;20.58;13.18;;;-0.40;99.90;;;;;;4887457;29;20083;-79
2021/12/23 03:59:07;;;;;;;21.15;13.13;;;1.20;99.90;;;;;;4910298;29;20099;-79
2021/12/23 04:01:33;;;;;;;20.73;13.15;;;0.70;99.90;;;;;;4911432;29;20506;-79
2021/12/23 04:03:59;;;;;;;22.55;13.57;;;-0.40;99.90;;;;;;4896701;29;20076;-78
2021/12/23 04:06:26;;;;;;;22.92;12.43;;;0.80;99.90;;;;;;4913237;29;20553;-78
2021/12/23 04:08:53;;;;;;;22.30;12.93;;;-0.40;99.90;;;;;;4928484;29;20052;-78
2021/12/23 04:11:20;;;;;;;20.20;12.77;;;-0.40;99.90;;;;;;4898038;29;20409;-80
2021/12/23 04:13:46;;;;;;;18.98;12.25;;;1.10;99.90;;;;;;4909046;29;20059;-78
2021/12/23 04:16:12;;;;;;;19.25;12.35;;;-0.30;99.90;;;;;;4915206;29;20486;-78
2021/12/23 04:18:38;;;;;;;22.02;13.05;;;-0.30;99.90;;;;;;4913820;29;20202;-78
2021/12/23 04:21:04;;;;;;;20.92;13.25;;;-0.30;99.90;;;;;;4930515;29;20059;-79
2021/12/23 04:23:31;;;;;;;20.00;13.38;;;-0.30;99.90;;;;;;4897628;29;20114;-79
2021/12/23 04:25:57;;;;;;;21.60;13.35;;;1.00;99.90;;;;;;4915235;29;20056;-78
2021/12/23 04:28:24;;;;;;;21.45;13.30;;;1.40;99.90;;;;;;4913410;29;20055;-79
2021/12/23 04:30:50;;;;;;;20.88;13.63;;;0.10;99.90;;;;;;4892511;29;20056;-78
2021/12/23 04:33:16;;;;;;;19.60;13.48;;;1.40;99.90;;;;;;4913767;29;20059;-78
2021/12/23 04:35:42;;;;;;;24.05;13.75;;;-0.30;99.90;;;;;;4913130;29;20051;-78
2021/12/23 04:38:07;;;;;;;21.02;13.77;;;-0.20;99.90;;;;;;4914368;29;20741;-78
2021/12/23 04:40:34;;;;;;;22.27;13.93;;;-0.20;99.90;;;;;;4898459;29;20057;-79
2021/12/23 04:43:02;;;;;;;21.52;13.40;;;1.00;99.90;;;;;;4898267;29;20059;-79
2021/12/23 04:45:28;;;;;;;22.02;14.50;;;0.60;99.90;;;;;;4914157;29;20055;-79
2021/12/23 04:47:54;;;;;;;24.02;14.07;;;-0.10;99.90;;;;;;4897292;29;20056;-78
2021/12/23 04:50:20;;;;;;;22.40;15.32;;;1.20;99.90;;;;;;4898997;29;20059;-79
2021/12/23 04:52:46;;;;;;;25.45;14.82;;;1.40;99.90;;;;;;4910766;29;20056;-78
2021/12/23 04:55:13;;;;;;;20.92;14.10;;;1.20;99.90;;;;;;4915409;29;20055;-78
2021/12/23 04:57:40;;;;;;;24.77;14.75;;;-0.10;99.90;;;;;;4913131;29;20094;-79
2021/12/23 05:00:20;;;;;;;25.67;16.10;;;0.00;99.90;;;;;;4913671;29;20085;-78
2021/12/23 05:02:46;;;;;;;30.08;16.60;;;1.60;99.90;;;;;;4911945;29;20532;-77
2021/12/23 05:05:13;;;;;;;26.05;16.85;;;0.00;99.90;;;;;;4898574;29;20051;-78
2021/12/23 05:07:39;;;;;;;27.65;16.42;;;0.30;99.90;;;;;;4912849;29;20056;-78
2021/12/23 05:10:08;;;;;;;30.60;17.20;;;0.10;99.90;;;;;;4897948;29;20055;-78
2021/12/23 05:12:41;;;;;;;31.02;18.00;;;0.10;99.90;;;;;;4913212;29;20068;-78
2021/12/23 05:15:07;;;;;;;26.65;17.05;;;0.60;99.90;;;;;;4898749;29;20048;-77
2021/12/23 05:17:33;;;;;;;27.92;17.00;;;0.20;99.90;;;;;;4928637;29;20131;-78
2021/12/23 05:19:59;;;;;;;27.27;18.38;;;1.50;99.90;;;;;;4894119;29;20391;-79
2021/12/23 05:22:25;;;;;;;27.90;17.33;;;1.20;99.90;;;;;;4878788;29;20040;-79
2021/12/23 05:24:51;;;;;;;28.98;17.45;;;1.70;99.90;;;;;;4928206;29;20060;-78
2021/12/23 05:27:18;;;;;;;24.95;16.75;;;0.30;99.90;;;;;;4914388;29;20402;-78
2021/12/23 05:29:43;;;;;;;26.58;17.58;;;0.60;99.90;;;;;;4913118;29;20044;-78
2021/12/23 05:32:09;;;;;;;27.88;17.35;;;1.90;99.90;;;;;;4913561;29;20071;-78
2021/12/23 05:34:35;;;;;;;29.73;18.38;;;1.70;99.90;;;;;;4913709;29;20403;-78
2021/12/23 05:37:00;;;;;;;28.73;18.45;;;0.40;99.90;;;;;;4914986;29;20115;-78
2021/12/23 05:39:26;;;;;;;30.38;18.85;;;0.40;99.90;;;;;;4913972;29;20119;-79
2021/12/23 05:41:52;;;;;;;32.03;18.65;;;0.50;99.90;;;;;;4899052;29;20135;-79
2021/12/23 05:44:18;;;;;;;28.15;19.27;;;0.50;99.90;;;;;;4914071;29;20106;-77
2021/12/23 05:46:44;;;;;;;28.67;18.52;;;1.40;99.90;;;;;;4881346;29;20059;-78
2021/12/23 05:49:09;;;;;;;28.00;18.33;;;1.70;99.90;;;;;;4914173;29;20379;-78
2021/12/23 05:51:35;;;;;;;30.48;18.23;;;1.70;99.90;;;;;;4912997;29;20055;-77
2021/12/23 05:54:01;;;;;;;30.40;19.80;;;1.80;99.90;;;;;;4912798;29;20048;-78
2021/12/23 05:56:26;;;;;;;28.60;18.23;;;2.00;99.90;;;;;;4929591;29;20055;-78
2021/12/23 05:58:52;;;;;;;26.85;16.52;;;1.70;99.90;;;;;;4897184;29;20047;-78
2021/12/23 06:01:18;;;;;;;29.67;17.73;;;0.60;99.90;;;;;;4897663;29;20124;-77
2021/12/23 06:03:46;;;;;;;26.50;17.13;;;0.50;99.90;;;;;;4896622;29;20130;-78
2021/12/23 06:06:13;;;;;;;29.90;18.88;;;1.40;99.90;;;;;;4898391;29;20414;-77
2021/12/23 06:08:40;;;;;;;28.83;18.83;;;0.50;99.90;;;;;;4913866;29;20040;-78
2021/12/23 06:11:06;;;;;;;27.30;17.58;;;0.70;99.90;;;;;;4896525;29;20064;-77
2021/12/23 06:13:31;;;;;;;28.73;18.98;;;1.20;99.90;;;;;;4921615;29;20107;-79
2021/12/23 06:15:57;;;;;;;29.63;17.52;;;0.50;99.90;;;;;;4910518;29;20128;-78
2021/12/23 06:18:23;;;;;;;30.13;18.45;;;0.60;99.90;;;;;;4912344;29;20051;-79
2021/12/23 06:20:49;;;;;;;26.85;17.38;;;0.50;99.90;;;;;;4911017;29;20063;-79
2021/12/23 06:23:14;;;;;;;31.08;19.20;;;0.50;99.90;;;;;;4910296;29;20047;-79
2021/12/23 06:25:40;;;;;;;27.95;18.15;;;0.50;99.90;;;;;;4895078;29;20079;-79
2021/12/23 06:28:06;;;;;;;29.83;19.13;;;2.10;99.90;;;;;;4910982;29;20067;-79
2021/12/23 06:30:32;;;;;;;28.15;18.45;;;1.80;99.90;;;;;;4911080;29;20052;-79
2021/12/23 06:32:58;;;;;;;29.30;18.42;;;0.90;99.90;;;;;;4904841;29;20048;-78
2021/12/23 06:35:27;;;;;;;29.67;17.65;;;0.70;99.90;;;;;;4911001;29;20114;-78
2021/12/23 06:37:52;;;;;;;29.75;19.75;;;1.70;99.90;;;;;;4911047;29;20048;-79
2021/12/23 06:40:19;;;;;;;28.38;18.27;;;0.50;99.90;;;;;;4913533;29;20494;-79
2021/12/23 06:42:45;;;;;;;28.30;18.65;;;0.50;99.90;;;;;;4896585;29;20044;-78
2021/12/23 06:45:12;;;;;;;29.00;19.17;;;1.00;99.90;;;;;;4905153;29;20083;-78
2021/12/23 06:47:41;;;;;;;31.48;19.33;;;0.50;99.90;;;;;;4927553;29;20063;-78
2021/12/23 06:50:09;;;;;;;29.08;18.60;;;0.60;99.90;;;;;;4897311;29;20059;-78
2021/12/23 06:52:37;;;;;;;29.45;17.58;;;0.50;99.90;;;;;;4910422;29;20047;-78
2021/12/23 06:55:04;;;;;;;31.67;19.65;;;1.30;99.90;;;;;;4896718;29;20055;-79
2021/12/23 06:57:30;;;;;;;34.50;19.52;;;0.50;99.90;;;;;;4927516;29;20056;-80
2021/12/23 06:59:56;;;;;;;30.40;19.52;;;0.50;99.90;;;;;;4911459;29;20688;-78
2021/12/23 07:02:23;;;;;;;28.92;18.40;;;0.50;99.90;;;;;;4894033;29;20052;-79
2021/12/23 07:04:49;;;;;;;31.52;19.15;;;0.50;99.90;;;;;;4910502;29;20768;-78
2021/12/23 07:07:26;;;;;;;33.22;22.70;;;0.50;99.90;;;;;;4911289;29;20075;-79
2021/12/23 07:09:52;;;;;;;34.03;20.67;;;0.50;99.90;;;;;;4896668;29;20044;-78
2021/12/23 07:12:18;;;;;;;32.78;20.27;;;2.20;99.90;;;;;;4911773;29;20532;-78
2021/12/23 07:14:43;;;;;;;33.13;20.50;;;0.20;99.90;;;;;;4894252;29;20056;-78
2021/12/23 07:17:09;;;;;;;36.85;22.55;;;0.50;99.90;;;;;;4909014;29;20048;-78
2021/12/23 07:19:35;;;;;;;39.08;22.55;;;1.40;99.90;;;;;;4891364;29;20107;-77
2021/12/23 07:22:02;;;;;;;41.17;22.17;;;1.70;99.90;;;;;;4889707;29;20136;-81
2021/12/23 07:24:28;;;;;;;39.72;22.95;;;0.50;99.90;;;;;;4909360;29;20094;-78
2021/12/23 07:26:54;;;;;;;35.38;21.48;;;0.50;99.90;;;;;;4886308;29;21867;-79
2021/12/23 07:29:20;;;;;;;44.38;25.27;;;0.50;99.90;;;;;;4909238;29;20048;-80
2021/12/23 07:31:48;;;;;;;40.72;23.63;;;1.70;99.90;;;;;;4909339;29;20048;-83
2021/12/23 07:34:16;;;;;;;42.33;23.92;;;0.90;99.90;;;;;;4909361;29;20054;-80
2021/12/23 07:36:43;;;;;;;48.45;26.05;;;0.60;99.90;;;;;;4908834;29;20056;-82
2021/12/23 07:39:09;;;;;;;49.85;26.23;;;0.60;99.90;;;;;;4908752;29;20054;-80
2021/12/23 07:41:35;;;;;;;51.75;26.02;;;2.10;99.90;;;;;;4887691;29;20052;-80
2021/12/23 07:44:07;;;;;;;49.38;25.50;;;2.00;99.90;;;;;;4892557;29;20048;-80
2021/12/23 07:46:35;;;;;;;50.17;25.98;;;0.60;99.90;;;;;;4903756;29;20063;-80
2021/12/23 07:49:07;;;;;;;52.40;25.80;;;0.60;99.90;;;;;;4908466;29;20190;-80
2021/12/23 07:51:33;;;;;;;49.53;24.50;;;0.60;99.90;;;;;;4909271;29;20056;-80
2021/12/23 07:53:59;;;;;;;50.05;26.73;;;0.90;99.90;;;;;;4893780;29;20054;-79
2021/12/23 07:56:25;;;;;;;59.97;31.13;;;0.60;99.90;;;;;;4894217;29;20055;-79
2021/12/23 07:58:51;;;;;;;61.38;29.52;;;2.00;99.90;;;;;;4892706;29;20043;-80
2021/12/23 08:01:18;;;;;;;53.03;28.17;;;0.60;99.90;;;;;;4909710;29;20120;-77
2021/12/23 08:03:44;;;;;;;53.80;28.67;;;0.60;99.90;;;;;;4909221;29;20067;-77
2021/12/23 08:06:10;;;;;;;60.13;30.15;;;0.70;99.90;;;;;;4909081;29;20406;-78
2021/12/23 08:08:35;;;;;;;56.20;28.25;;;1.30;99.90;;;;;;4926629;29;20056;-78
2021/12/23 08:11:02;;;;;;;57.38;29.70;;;0.60;99.90;;;;;;4888889;29;20055;-77
2021/12/23 08:13:28;;;;;;;57.13;31.00;;;2.10;99.90;;;;;;4878923;29;20044;-77
2021/12/23 08:15:54;;;;;;;60.42;30.50;;;1.90;99.90;;;;;;4879608;29;20127;-77
2021/12/23 08:18:20;;;;;;;61.95;31.10;;;1.20;99.90;;;;;;4894799;29;20055;-77
2021/12/23 08:20:46;;;;;;;65.05;32.40;;;0.60;99.90;;;;;;4909001;29;20075;-83
2021/12/23 08:23:12;;;;;;;62.38;31.63;;;2.10;99.90;;;;;;4908905;29;20044;-78
2021/12/23 08:25:38;;;;;;;64.10;32.03;;;0.60;99.90;;;;;;4908049;29;20059;-78
2021/12/23 08:28:04;;;;;;;67.68;32.00;;;0.60;99.90;;;;;;4892736;29;20071;-78
2021/12/23 08:30:30;;;;;;;59.30;31.05;;;1.70;99.90;;;;;;4910692;29;20079;-78
2021/12/23 08:32:55;;;;;;;60.42;32.20;;;0.60;99.90;;;;;;4908218;29;20440;-77
2021/12/23 08:35:21;;;;;;;64.88;30.95;;;2.00;99.90;;;;;;4883987;29;20052;-79
2021/12/23 08:37:49;;;;;;;65.95;31.20;;;0.70;99.90;;;;;;4907195;29;20064;-77
2021/12/23 08:40:19;;;;;;;66.32;31.90;;;1.40;99.90;;;;;;4924545;29;20052;-77
2021/12/23 08:42:46;;;;;;;63.75;32.08;;;0.70;99.90;;;;;;4908859;29;20163;-77
2021/12/23 08:45:11;;;;;;;67.47;31.45;;;1.90;99.90;;;;;;4910322;29;20430;-77
2021/12/23 08:47:38;;;;;;;71.60;32.70;;;-0.80;99.90;;;;;;4893909;29;20154;-78
2021/12/23 08:50:10;;;;;;;70.72;33.17;;;0.00;99.90;;;;;;4910362;29;20060;-79
2021/12/23 08:52:36;;;;;;;79.60;34.22;;;0.70;99.90;;;;;;4894645;29;20055;-79
2021/12/23 08:55:06;;;;;;;69.50;34.22;;;0.60;99.90;;;;;;4909134;29;20071;-79
2021/12/23 08:57:32;;;;;;;76.93;33.22;;;0.70;99.90;;;;;;4893548;29;20127;-79
2021/12/23 08:59:58;;;;;;;67.65;31.42;;;0.80;99.90;;;;;;4903114;29;20059;-79
2021/12/23 09:02:25;;;;;;;72.40;32.22;;;0.80;99.90;;;;;;4897382;29;20048;-78
2021/12/23 09:04:51;;;;;;;71.85;32.95;;;0.80;99.90;;;;;;4913366;29;20490;-77
2021/12/23 09:07:17;;;;;;;74.45;35.78;;;2.00;99.90;;;;;;4898054;29;20056;-80
2021/12/23 09:09:46;;;;;;;72.68;32.50;;;0.80;99.90;;;;;;4905891;29;20056;-79
2021/12/23 09:12:12;;;;;;;73.93;34.28;;;0.80;99.90;;;;;;4913594;29;20071;-78
2021/12/23 09:14:38;;;;;;;81.10;36.08;;;1.60;99.90;;;;;;4913367;29;20051;-78
2021/12/23 09:17:04;;;;;;;77.75;33.22;;;1.90;99.90;;;;;;4912420;29;20212;-79
2021/12/23 09:19:30;;;;;;;78.47;33.40;;;1.20;99.90;;;;;;4913142;29;20558;-79
2021/12/23 09:21:56;;;;;;;70.82;32.80;;;0.90;99.90;;;;;;4912825;29;20374;-79
2021/12/23 09:24:22;;;;;;;74.75;32.38;;;0.90;99.90;;;;;;4897176;29;20090;-79
2021/12/23 09:26:58;;;;;;;71.75;32.00;;;1.40;99.90;;;;;;4894893;29;20055;-78
2021/12/23 09:34:48;;;;;;;77.72;33.67;;;1.00;99.90;;;;;;4912754;29;20060;-78
2021/12/23 09:37:14;;;;;;;74.07;32.72;;;1.00;99.90;;;;;;4928196;29;20103;-78
2021/12/23 09:39:40;;;;;;;71.32;32.38;;;1.20;99.90;;;;;;4912345;29;20044;-78
2021/12/23 09:42:06;;;;;;;70.07;33.70;;;2.20;99.90;;;;;;4896225;29;20401;-79
2021/12/23 09:44:32;;;;;;;69.03;31.83;;;1.10;99.90;;;;;;4891313;29;20056;-79
2021/12/23 09:47:02;;;;;;;69.28;32.55;;;1.10;99.90;;;;;;4912380;29;20785;-79
2021/12/23 09:49:30;;;;;;;73.13;32.58;;;1.10;99.90;;;;;;4913402;29;20051;-78
2021/12/23 09:51:57;;;;;;;68.93;32.28;;;1.80;99.90;;;;;;4911976;29;20052;-78
2021/12/23 09:54:25;;;;;;;73.97;32.53;;;2.40;99.90;;;;;;4897130;29;20123;-78
2021/12/23 09:56:53;;;;;;;68.97;33.10;;;1.20;99.90;;;;;;4904465;29;20534;-78
2021/12/23 09:59:26;;;;;;;75.75;33.03;;;1.70;99.90;;;;;;4912608;29;20044;-78
2021/12/23 10:01:52;;;;;;;76.35;32.50;;;2.60;99.90;;;;;;4912212;29;20051;-79
2021/12/23 10:04:17;;;;;;;70.40;32.35;;;1.20;99.90;;;;;;4913017;29;20111;-78
2021/12/23 10:06:43;;;;;;;77.15;33.13;;;1.20;99.90;;;;;;4897068;29;20790;-79
2021/12/23 10:09:09;;;;;;;77.60;32.83;;;1.20;99.90;;;;;;4912130;29;20087;-78
2021/12/23 10:31:33;;;;;;;72.75;31.38;;;2.80;99.90;;;;;;4912280;29;20056;-78
2021/12/23 10:37:22;;;;;;;77.60;33.25;;;1.50;99.90;;;;;;4903370;29;20107;-78
2021/12/23 10:39:51;;;;;;;66.45;29.42;;;1.30;99.90;;;;;;4895187;29;20048;-78
2021/12/23 10:42:27;;;;;;;74.53;32.05;;;1.50;99.90;;;;;;4896057;29;20058;-77
2021/12/23 10:45:03;;;;;;;71.43;30.58;;;1.50;99.90;;;;;;4911852;29;20099;-77
2021/12/23 10:47:36;;;;;;;;;;;1.50;99.90;;;;;;4911274;29;20051;-79
2021/12/23 10:50:32;;;;;;;74.38;30.77;;;1.50;99.90;;;;;;4905116;29;19923;-79
2021/12/23 10:53:04;;;;;;;67.70;30.92;;;1.50;99.90;;;;;;4911316;29;20059;-78
2021/12/23 10:58:16;;;;;;;78.20;32.03;;;2.10;99.90;;;;;;4927406;29;20858;-78
2021/12/23 11:00:49;;;;;;;70.30;31.63;;;1.30;99.90;;;;;;4912231;29;20055;-78
2021/12/23 11:03:29;;;;;;;70.63;30.33;;;1.50;99.90;;;;;;4905055;29;20083;-78
2021/12/23 11:06:04;;;;;;;75.88;33.75;;;1.80;99.90;;;;;;4909700;29;20054;-78
2021/12/23 11:45:31;;;;;;;65.28;28.27;;;1.70;99.90;;;;;;4904767;29;20047;-81
2021/12/23 11:47:58;;;;;;;69.63;29.50;;;;;;;;;;4909769;29;20052;-81
2021/12/23 11:50:32;;;;;;;65.55;28.38;;;1.70;99.90;;;;;;4894914;29;20071;-81
2021/12/23 11:53:09;;;;;;;60.33;27.63;;;1.80;99.90;;;;;;4910082;29;20052;-81
2021/12/23 11:55:36;;;;;;;65.45;29.90;;;0.40;99.90;;;;;;4894901;29;20106;-78
2021/12/23 11:58:02;;;;;;;65.57;28.17;;;2.70;99.90;;;;;;4878409;29;20054;-79
2021/12/23 12:00:41;;;;;;;65.07;28.85;;;1.90;99.90;;;;;;4909488;29;20414;-79
2021/12/23 12:03:09;;;;;;;66.72;28.73;;;1.70;99.90;;;;;;4909122;29;20048;-82
2021/12/23 12:05:36;;;;;;;64.90;28.08;;;1.70;99.90;;;;;;4909948;29;20052;-82
2021/12/23 12:08:15;;;;;;;68.13;29.00;;;3.10;99.90;;;;;;4923685;29;20123;-83
2021/12/23 12:10:42;;;;;;;63.45;29.52;;;1.70;99.90;;;;;;4902712;29;20100;-82
2021/12/23 12:13:11;;;;;;;69.57;29.92;;;1.90;99.90;;;;;;4909480;29;20058;-83
2021/12/23 12:15:41;;;;;;;71.28;29.35;;;1.80;99.90;;;;;;4909632;29;20186;-84
2021/12/23 12:18:11;;;;;;;64.13;28.00;;;1.90;99.90;;;;;;4908999;29;20127;-83
2021/12/23 12:20:58;;;;;;;69.53;29.25;;;1.70;99.90;;;;;;4903365;29;20514;-78
2021/12/23 12:23:32;;;;;;;61.38;27.95;;;1.70;99.90;;;;;;4893731;29;20143;-84
2021/12/23 12:25:59;;;;;;;71.22;30.08;;;2.00;99.90;;;;;;4908283;29;20417;-83
2021/12/23 12:28:34;;;;;;;66.18;29.08;;;1.80;99.90;;;;;;4893556;29;20552;-84
2021/12/23 12:31:06;;;;;;;68.88;30.92;;;1.80;99.90;;;;;;4886591;29;20067;-83
2021/12/23 12:33:33;;;;;;;66.95;30.42;;;1.80;99.90;;;;;;4909486;29;20659;-84
2021/12/23 12:36:04;;;;;;;65.40;29.60;;;1.80;99.90;;;;;;4895862;29;20111;-84
2021/12/23 12:38:43;;;;;;;69.75;30.92;;;1.80;99.90;;;;;;4896841;29;20048;-85
2021/12/23 12:41:27;;;;;;;69.25;29.67;;;1.80;99.90;;;;;;4897741;29;20174;-81
2021/12/23 12:47:00;;;;;;;68.75;30.33;;;1.90;99.90;;;;;;4911971;29;20780;-79
2021/12/23 12:49:48;;;;;;;75.30;31.55;;;1.90;99.90;;;;;;4928940;29;20059;-86
2021/12/23 12:52:17;;;;;;;71.78;31.23;;;1.90;99.90;;;;;;4906908;29;20529;-80
2021/12/23 12:55:05;;;;;;;66.65;30.42;;;0.90;99.90;;;;;;4896858;29;20502;-85
2021/12/23 12:57:41;;;;;;;72.97;32.53;;;2.00;99.90;;;;;;4912543;29;20052;-84
2021/12/23 13:00:19;;;;;;;72.95;32.17;;;2.10;99.90;;;;;;4905842;29;20134;-84
2021/12/23 13:03:11;;;;;;;78.45;33.25;;;2.20;99.90;;;;;;4895799;29;20052;-84
2021/12/23 13:05:41;;;;;;;75.22;32.92;;;2.00;99.90;;;;;;4907007;29;20044;-85
2021/12/23 13:08:34;;;;;;;74.68;33.80;;;2.20;99.90;;;;;;4911717;29;20134;-84
2021/12/23 13:11:20;;;;;;;71.75;31.77;;;3.90;99.90;;;;;;4908507;29;20083;-81
2021/12/23 13:13:52;;;;;;;72.40;33.05;;;2.70;99.90;;;;;;4910785;29;20520;-81
2021/12/23 13:16:23;;;;;;;70.35;31.08;;;3.50;99.90;;;;;;4896239;29;20052;-80
2021/12/23 13:19:12;;;;;;;68.28;31.60;;;3.50;99.90;;;;;;4895786;29;20040;-81
2021/12/23 13:21:44;;;;;;;73.22;31.98;;;2.20;99.90;;;;;;4912272;29;20090;-80
2021/12/23 13:24:12;;;;;;;72.40;32.55;;;2.20;99.90;;;;;;4922137;29;20083;-80
2021/12/23 13:26:38;;;;;;;75.07;33.42;;;2.30;99.90;;;;;;4926901;29;20055;-81
2021/12/23 13:29:07;;;;;;;72.45;30.90;;;2.50;99.90;;;;;;4895540;29;20056;-81
2021/12/23 13:31:34;;;;;;;68.97;31.60;;;2.70;99.90;;;;;;4912144;29;20494;-81
2021/12/23 13:34:06;;;;;;;84.97;33.38;;;3.40;99.90;;;;;;4909368;29;20048;-81
2021/12/23 13:36:44;;;;;;;77.03;32.15;;;3.40;99.90;;;;;;4895843;29;20087;-81
2021/12/23 13:39:13;;;;;;;72.82;32.30;;;2.40;99.90;;;;;;4907811;29;20052;-81
2021/12/23 13:41:59;;;;;;;75.32;32.28;;;2.30;99.90;;;;;;4908312;29;20175;-85
2021/12/23 13:44:56;;;;;;;82.57;33.60;;;2.40;99.90;;;;;;4908590;29;20044;-83
2021/12/23 13:47:22;;;;;;;77.43;31.92;;;2.40;99.90;;;;;;4915967;29;20515;-84
2021/12/23 13:49:53;;;;;;;71.20;31.45;;;1.40;99.90;;;;;;4909302;29;20458;-80
2021/12/23 13:52:29;;;;;;;81.65;33.45;;;3.90;99.90;;;;;;4910298;29;20679;-79
2021/12/23 13:55:01;;;;;;;70.88;31.92;;;2.70;99.90;;;;;;4910154;29;20371;-79
2021/12/23 13:57:30;;;;;;;75.68;32.28;;;2.50;99.90;;;;;;4926870;29;20486;-79
2021/12/23 13:59:56;;;;;;;75.05;32.40;;;2.50;99.90;;;;;;4911887;29;20402;-82
2021/12/23 14:02:25;;;;;;;82.00;33.78;;;3.20;99.90;;;;;;4910815;29;20051;-80
2021/12/23 14:04:56;;;;;;;76.53;32.03;;;3.80;99.90;;;;;;4895218;29;20052;-80